Time;durP1;ratioP1;P1;durP2;ratioP2;P2;SDS_P1;SDS_P2;PMS_P1;PMS_P2;Temp;Humidity;BMP_temperature;BMP_pressure;BME280_temperature;BME280_humidity;BME280_pressure;Samples;Min_cycle;Max_cycle;Signal;HPM_P1;HPM_P2
2021/04/10 00:02:11;;;;;;;5.05;2.15;;;22.40;83.50;;;;;;5040069;28;20033;-54
2021/04/10 00:04:42;;;;;;;4.18;2.22;;;22.50;82.20;;;;;;5038216;28;20383;-59
2021/04/10 00:07:10;;;;;;;5.43;1.90;;;22.60;81.10;;;;;;5037430;28;20033;-51
2021/04/10 00:09:37;;;;;;;3.65;1.58;;;22.70;80.40;;;;;;5038421;28;20033;-57
2021/04/10 00:12:05;;;;;;;7.88;2.10;;;22.70;80.40;;;;;;5039080;28;20029;-59
2021/04/10 00:14:33;;;;;;;5.43;2.15;;;22.80;77.50;;;;;;5040294;28;20097;-55
2021/04/10 00:17:00;;;;;;;6.68;2.15;;;22.90;81.20;;;;;;5030350;28;20711;-55
2021/04/10 00:19:28;;;;;;;6.13;1.95;;;23.00;76.50;;;;;;5033085;28;20036;-61
2021/04/10 00:21:55;;;;;;;5.00;2.00;;;23.00;80.70;;;;;;5043820;28;20114;-57
2021/04/10 00:24:23;;;;;;;6.28;2.05;;;23.10;79.50;;;;;;5040629;28;20116;-61
2021/04/10 00:26:50;;;;;;;3.67;1.67;;;23.20;76.80;;;;;;5039698;28;20143;-62
2021/04/10 00:29:18;;;;;;;4.65;1.92;;;23.30;75.70;;;;;;5035188;28;20077;-60
2021/04/10 00:31:45;;;;;;;6.90;1.77;;;23.40;76.90;;;;;;5043697;28;20036;-65
2021/04/10 00:34:13;;;;;;;4.07;1.80;;;23.40;77.00;;;;;;5039360;28;20057;-54
2021/04/10 00:36:44;;;;;;;6.50;2.00;;;23.50;74.40;;;;;;5039147;28;20030;-60
2021/04/10 00:39:11;;;;;;;14.20;3.25;;;23.70;64.50;;;;;;5035842;28;20029;-61
2021/04/10 00:41:44;;;;;;;11.35;3.78;;;23.90;58.60;;;;;;5039153;28;20063;-64
2021/04/10 00:44:12;;;;;;;7.20;4.05;;;23.80;65.50;;;;;;5038173;28;20033;-61
2021/04/10 00:46:40;;;;;;;12.23;5.43;;;23.70;69.70;;;;;;5019599;28;20055;-54
2021/04/10 00:49:07;;;;;;;9.52;5.60;;;23.70;70.50;;;;;;5030728;28;20026;-63
2021/04/10 00:51:35;;;;;;;9.80;5.18;;;23.80;71.80;;;;;;5042225;28;20037;-60
2021/04/10 00:54:02;;;;;;;7.57;4.88;;;23.80;68.40;;;;;;5039163;28;20024;-52
2021/04/10 00:56:30;;;;;;;9.50;4.97;;;23.90;68.90;;;;;;5039644;28;20025;-55
2021/04/10 00:58:58;;;;;;;9.82;5.20;;;23.90;69.30;;;;;;5034650;28;20025;-57
2021/04/10 01:01:28;;;;;;;8.45;5.18;;;23.90;69.00;;;;;;5042567;28;20645;-57
2021/04/10 01:03:58;;;;;;;12.35;4.85;;;23.90;68.20;;;;;;5038459;28;20368;-58
2021/04/10 01:06:26;;;;;;;7.80;5.47;;;24.00;66.80;;;;;;5023814;28;20033;-56
2021/04/10 01:08:54;;;;;;;8.25;4.70;;;24.10;71.50;;;;;;5049795;28;20033;-61
2021/04/10 01:11:45;;;;;;;10.48;6.45;;;24.10;67.50;;;;;;5042056;28;20499;-60
2021/04/10 01:14:44;;;;;;;13.50;6.47;;;24.20;71.30;;;;;;5035509;28;20029;-66
2021/04/10 01:17:17;;;;;;;16.73;6.32;;;24.20;69.70;;;;;;5038270;28;20089;-59
2021/04/10 01:20:00;;;;;;;9.75;7.25;;;24.30;67.60;;;;;;5034224;28;20037;-56
2021/04/10 01:22:46;;;;;;;11.73;6.00;;;24.40;69.20;;;;;;5042579;28;20487;-64
2021/04/10 01:25:24;;;;;;;8.10;6.80;;;24.40;64.90;;;;;;5047516;28;20060;-60
2021/04/10 01:27:59;;;;;;;12.50;6.93;;;24.50;68.00;;;;;;5016864;28;20041;-59
2021/04/10 01:30:33;;;;;;;9.93;6.30;;;24.60;66.30;;;;;;5030925;28;20050;-62
2021/04/10 01:33:19;;;;;;;11.48;7.32;;;24.70;65.70;;;;;;5041605;28;20483;-60
2021/04/10 01:35:57;;;;;;;16.38;7.30;;;24.70;67.30;;;;;;5018033;28;20033;-60
2021/04/10 01:38:29;;;;;;;12.93;8.50;;;24.70;70.30;;;;;;5024050;28;20395;-61
2021/04/10 01:41:01;;;;;;;11.43;8.05;;;24.80;67.20;;;;;;5020002;28;20522;-65
2021/04/10 01:43:37;;;;;;;26.35;9.05;;;24.80;64.50;;;;;;5034107;28;20029;-60
2021/04/10 01:46:08;;;;;;;11.15;6.88;;;24.90;70.30;;;;;;5038187;28;20514;-59
2021/04/10 01:48:40;;;;;;;14.48;8.00;;;24.90;66.50;;;;;;5021686;28;20651;-58
2021/04/10 01:51:08;;;;;;;19.27;7.28;;;25.00;71.20;;;;;;5038874;28;20628;-60
2021/04/10 01:53:37;;;;;;;7.32;5.43;;;25.00;66.30;;;;;;5034938;28;20480;-60
2021/04/10 01:56:06;;;;;;;26.35;8.20;;;25.00;67.60;;;;;;5042452;28;20045;-56
2021/04/10 01:58:37;;;;;;;18.90;7.78;;;24.90;69.10;;;;;;5002673;28;20040;-61
2021/04/10 02:01:11;;;;;;;14.90;5.47;;;25.00;70.20;;;;;;5024168;28;20067;-66
2021/04/10 02:03:42;;;;;;;20.48;6.05;;;25.00;65.60;;;;;;5039358;28;20041;-62
2021/04/10 02:06:12;;;;;;;15.55;5.95;;;25.10;72.20;;;;;;5023757;28;20028;-63
2021/04/10 02:08:42;;;;;;;14.85;5.30;;;25.40;68.30;;;;;;5035511;28;20041;-59
2021/04/10 02:11:12;;;;;;;12.07;3.25;;;25.50;64.80;;;;;;5036809;28;20171;-53
2021/04/10 02:13:40;;;;;;;12.90;4.30;;;25.60;61.50;;;;;;5039652;28;20027;-60
2021/04/10 02:16:11;;;;;;;12.20;2.60;;;25.70;58.90;;;;;;5040229;28;20368;-55
2021/04/10 02:18:39;;;;;;;16.70;4.23;;;25.80;52.40;;;;;;5016135;28;20152;-54
2021/04/10 02:21:09;;;;;;;12.52;4.47;;;25.70;58.10;;;;;;5041582;28;20078;-64
2021/04/10 02:23:43;;;;;;;9.23;3.40;;;25.50;63.10;;;;;;5043462;28;20033;-64
2021/04/10 02:26:11;;;;;;;14.15;3.85;;;25.40;62.10;;;;;;5019897;28;20108;-58
2021/04/10 02:28:38;;;;;;;10.20;3.50;;;25.30;61.40;;;;;;5035791;28;20033;-66
2021/04/10 02:31:06;;;;;;;15.15;4.07;;;25.30;60.10;;;;;;5039600;28;20079;-62
2021/04/10 02:33:42;;;;;;;11.90;3.25;;;25.30;57.70;;;;;;5040448;28;20391;-63
2021/04/10 02:36:16;;;;;;;11.10;3.03;;;25.30;62.90;;;;;;5039336;28;20032;-61
2021/04/10 02:38:45;;;;;;;8.80;3.20;;;25.30;59.80;;;;;;5021746;28;20033;-63
2021/04/10 02:41:21;;;;;;;5.70;2.60;;;25.30;59.00;;;;;;5040724;28;20143;-64
2021/04/10 02:43:56;;;;;;;10.93;3.58;;;25.40;59.70;;;;;;5037488;28;20028;-64
2021/04/10 02:46:29;;;;;;;7.95;2.75;;;25.40;63.60;;;;;;5044415;28;20087;-59
2021/04/10 02:49:03;;;;;;;10.73;3.00;;;25.40;60.70;;;;;;5033988;28;20568;-62
2021/04/10 02:51:41;;;;;;;8.25;3.28;;;25.50;59.70;;;;;;5035291;28;20132;-64
2021/04/10 02:54:12;;;;;;;6.35;3.20;;;25.50;62.90;;;;;;5033326;28;20045;-65
2021/04/10 02:56:45;;;;;;;5.45;2.25;;;25.50;63.20;;;;;;5017036;28;20029;-57
2021/04/10 02:59:14;;;;;;;11.10;2.67;;;25.60;56.20;;;;;;5036349;28;20033;-63
2021/04/10 03:01:42;;;;;;;5.70;2.67;;;25.60;57.60;;;;;;5040560;28;20029;-59
2021/04/10 03:04:13;;;;;;;13.25;4.03;;;25.70;58.60;;;;;;5039015;28;20025;-62
2021/04/10 03:06:45;;;;;;;8.35;3.22;;;25.70;56.10;;;;;;5036812;28;20033;-66
2021/04/10 03:09:19;;;;;;;11.75;2.50;;;25.80;58.90;;;;;;5036823;28;20052;-65
2021/04/10 03:11:47;;;;;;;8.52;3.10;;;25.90;61.20;;;;;;5040964;28;20037;-60
2021/04/10 03:14:15;;;;;;;5.68;2.90;;;25.90;57.90;;;;;;5041062;28;20040;-58
2021/04/10 03:16:49;;;;;;;12.38;2.88;;;25.90;62.10;;;;;;5022411;28;20095;-61
2021/04/10 03:19:17;;;;;;;6.07;2.38;;;25.90;60.90;;;;;;5036445;28;20052;-59
2021/04/10 03:21:48;;;;;;;4.93;2.13;;;25.90;59.50;;;;;;5034865;28;20052;-61
2021/04/10 03:24:17;;;;;;;6.28;2.75;;;25.90;62.90;;;;;;5035062;28;20033;-66
2021/04/10 03:26:44;;;;;;;4.72;2.55;;;26.00;62.20;;;;;;5039585;28;20115;-57
2021/04/10 03:29:12;;;;;;;6.80;2.35;;;26.00;60.90;;;;;;5024152;28;20028;-58
2021/04/10 03:31:40;;;;;;;9.63;2.25;;;26.10;58.40;;;;;;5025112;28;20415;-56
2021/04/10 03:34:09;;;;;;;5.03;2.40;;;26.10;60.20;;;;;;5040286;28;20384;-58
2021/04/10 03:36:37;;;;;;;5.28;2.60;;;26.20;62.00;;;;;;5040742;28;20059;-62
2021/04/10 03:39:06;;;;;;;4.97;2.25;;;26.20;61.60;;;;;;5036578;28;20040;-58
2021/04/10 03:41:34;;;;;;;8.35;2.70;;;26.20;62.60;;;;;;5041203;28;20045;-56
2021/04/10 03:44:01;;;;;;;6.13;2.03;;;26.20;58.40;;;;;;5017833;28;20056;-66
2021/04/10 03:46:29;;;;;;;5.57;2.00;;;26.20;59.60;;;;;;5035910;28;20099;-62
2021/04/10 03:48:56;;;;;;;7.47;2.17;;;26.30;59.10;;;;;;5035872;28;20060;-63
2021/04/10 03:51:24;;;;;;;8.35;2.10;;;26.40;58.00;;;;;;5039235;28;20045;-57
2021/04/10 03:53:52;;;;;;;6.72;2.30;;;26.40;61.50;;;;;;5035218;28;20036;-56
2021/04/10 03:56:19;;;;;;;6.10;1.77;;;26.50;57.70;;;;;;5019218;28;20048;-56
2021/04/10 03:58:48;;;;;;;7.07;2.08;;;26.50;58.70;;;;;;5035033;28;20029;-60
2021/04/10 04:01:16;;;;;;;4.45;2.17;;;26.60;59.40;;;;;;5035234;28;20103;-62
2021/04/10 04:03:43;;;;;;;3.55;1.77;;;26.50;61.50;;;;;;5032796;28;20033;-65
2021/04/10 04:06:11;;;;;;;3.72;2.22;;;26.70;55.30;;;;;;5041775;28;20082;-57
2021/04/10 04:08:38;;;;;;;3.88;1.77;;;26.70;58.80;;;;;;5039376;28;20092;-58
2021/04/10 04:11:06;;;;;;;4.18;1.63;;;26.70;56.80;;;;;;5039424;28;20034;-55
2021/04/10 04:13:34;;;;;;;5.63;1.90;;;26.90;53.30;;;;;;5038624;28;20848;-66
2021/04/10 04:16:02;;;;;;;6.80;2.45;;;27.10;54.10;;;;;;5040355;28;20029;-64
2021/04/10 04:18:33;;;;;;;3.42;1.60;;;27.20;50.70;;;;;;5016645;28;20029;-59
2021/04/10 04:21:06;;;;;;;3.72;1.80;;;27.30;52.00;;;;;;5035324;28;20033;-56
2021/04/10 04:23:34;;;;;;;7.55;1.65;;;27.30;51.10;;;;;;5035145;28;20155;-64
2021/04/10 04:26:01;;;;;;;3.72;1.25;;;27.40;47.80;;;;;;5036377;28;20041;-65
2021/04/10 04:28:29;;;;;;;5.40;1.50;;;27.40;46.70;;;;;;5037939;28;20029;-65
2021/04/10 04:30:57;;;;;;;2.72;1.20;;;27.50;45.80;;;;;;5040484;28;20437;-59
2021/04/10 04:33:24;;;;;;;2.55;1.15;;;27.50;45.50;;;;;;5036306;28;20037;-54
2021/04/10 04:35:52;;;;;;;9.48;1.15;;;27.30;48.90;;;;;;5040000;28;20163;-58
2021/04/10 04:38:19;;;;;;;1.92;1.10;;;27.30;42.50;;;;;;5041625;28;20356;-61
2021/04/10 04:40:46;;;;;;;5.03;1.70;;;27.30;46.30;;;;;;5028528;28;20036;-53
2021/04/10 04:43:14;;;;;;;7.47;1.45;;;27.30;45.70;;;;;;5047389;28;20171;-63
2021/04/10 04:45:42;;;;;;;6.03;1.42;;;27.30;43.50;;;;;;5033889;28;20372;-64
2021/04/10 04:48:09;;;;;;;5.95;1.60;;;27.40;41.40;;;;;;5051385;28;20043;-63
2021/04/10 04:50:40;;;;;;;8.55;1.30;;;27.50;42.10;;;;;;5051470;28;20036;-61
2021/04/10 04:53:07;;;;;;;7.70;2.53;;;27.50;45.40;;;;;;5051560;28;20036;-64
2021/04/10 04:55:34;;;;;;;10.32;2.05;;;27.50;44.20;;;;;;5051669;28;20033;-66
2021/04/10 04:58:02;;;;;;;10.10;1.85;;;27.60;45.90;;;;;;5033192;28;20029;-65
2021/04/10 05:00:29;;;;;;;3.25;1.30;;;27.50;47.40;;;;;;5051711;28;20052;-65
2021/04/10 05:02:57;;;;;;;6.88;1.67;;;27.40;43.70;;;;;;5051503;28;20033;-61
2021/04/10 05:05:24;;;;;;;8.60;1.70;;;27.50;41.10;;;;;;5051860;28;20107;-65
2021/04/10 05:07:52;;;;;;;4.70;1.05;;;27.40;44.80;;;;;;5051772;28;20021;-62
2021/04/10 05:10:20;;;;;;;5.93;2.72;;;27.50;45.00;;;;;;5032413;28;20042;-61
2021/04/10 05:12:51;;;;;;;6.25;1.00;;;27.40;47.20;;;;;;5051239;28;20055;-64
2021/04/10 05:15:18;;;;;;;9.20;1.80;;;27.40;46.20;;;;;;5033752;28;20029;-62
2021/04/10 05:17:46;;;;;;;3.78;1.20;;;27.50;44.80;;;;;;5033196;28;20037;-58
2021/04/10 05:20:14;;;;;;;5.93;1.77;;;27.50;43.80;;;;;;5051281;28;20444;-64
2021/04/10 05:22:42;;;;;;;6.35;1.67;;;27.60;45.10;;;;;;5033566;28;20028;-63
2021/04/10 05:25:10;;;;;;;10.00;1.70;;;27.60;43.80;;;;;;5051379;28;20048;-63
2021/04/10 05:27:37;;;;;;;6.13;1.50;;;27.50;46.20;;;;;;5050911;28;20033;-63
2021/04/10 05:30:07;;;;;;;4.88;1.40;;;27.50;43.40;;;;;;5050865;28;20051;-64
2021/04/10 05:32:35;;;;;;;4.68;1.60;;;27.60;46.30;;;;;;5051169;28;20127;-67
2021/04/10 05:35:03;;;;;;;18.35;3.50;;;27.60;45.60;;;;;;5033205;28;20112;-63
2021/04/10 05:37:30;;;;;;;6.43;1.50;;;27.60;42.40;;;;;;5051485;28;20025;-61
2021/04/10 05:39:58;;;;;;;10.48;1.70;;;27.60;47.20;;;;;;5051056;28;20025;-62
2021/04/10 05:42:25;;;;;;;8.15;1.73;;;27.60;45.60;;;;;;5051168;28;20136;-63
2021/04/10 05:44:53;;;;;;;16.33;6.90;;;27.60;44.20;;;;;;5050889;28;20102;-59
2021/04/10 05:47:20;;;;;;;14.50;5.88;;;27.70;42.20;;;;;;5049517;28;20090;-69
2021/04/10 05:49:48;;;;;;;8.80;3.65;;;27.70;44.10;;;;;;5051196;28;20136;-63
2021/04/10 05:52:15;;;;;;;10.57;5.30;;;27.70;42.10;;;;;;5051213;28;20037;-57
2021/04/10 05:54:43;;;;;;;9.88;4.32;;;27.80;41.80;;;;;;5051294;28;20029;-59
2021/04/10 05:57:10;;;;;;;13.82;3.70;;;27.70;41.90;;;;;;5050958;28;20029;-58
2021/04/10 05:59:38;;;;;;;5.47;3.75;;;27.70;41.70;;;;;;5050377;28;20424;-58
2021/04/10 06:02:06;;;;;;;8.88;5.07;;;27.70;40.10;;;;;;5050358;28;20082;-61
2021/04/10 06:04:35;;;;;;;7.60;5.28;;;27.60;42.40;;;;;;5050629;28;20035;-54
2021/04/10 06:07:03;;;;;;;12.27;5.20;;;27.60;40.70;;;;;;5050786;28;20063;-60
2021/04/10 06:09:31;;;;;;;17.40;6.60;;;27.60;42.80;;;;;;5050366;28;20104;-53
2021/04/10 06:11:58;;;;;;;9.73;3.80;;;27.70;40.60;;;;;;5050467;28;20033;-63
2021/04/10 06:14:26;;;;;;;7.00;3.53;;;27.70;40.80;;;;;;5050496;28;20025;-61
2021/04/10 06:16:53;;;;;;;7.03;4.28;;;27.60;41.50;;;;;;5050265;28;20032;-65
2021/04/10 06:19:21;;;;;;;6.43;4.75;;;27.60;40.40;;;;;;5032305;28;20115;-65
2021/04/10 06:21:49;;;;;;;8.98;6.13;;;27.60;39.90;;;;;;5049921;28;20100;-66
2021/04/10 06:24:18;;;;;;;8.20;4.03;;;27.60;41.10;;;;;;5050214;28;20040;-64
2021/04/10 06:26:46;;;;;;;6.50;4.60;;;27.50;40.10;;;;;;5050237;28;20043;-59
2021/04/10 06:29:14;;;;;;;11.40;4.13;;;27.40;40.30;;;;;;5050058;28;20079;-60
2021/04/10 06:31:42;;;;;;;8.02;4.82;;;27.40;40.40;;;;;;5048874;28;20365;-64
2021/04/10 06:34:10;;;;;;;6.75;3.63;;;27.40;42.60;;;;;;5031597;28;20139;-66
2021/04/10 06:36:38;;;;;;;11.50;5.97;;;27.40;40.90;;;;;;5049599;28;20025;-59
2021/04/10 06:39:05;;;;;;;7.80;3.15;;;27.30;39.80;;;;;;5048718;28;20021;-65
2021/04/10 06:41:35;;;;;;;5.10;2.80;;;27.30;40.60;;;;;;5048144;28;20049;-60
2021/04/10 06:44:03;;;;;;;4.55;2.05;;;27.30;39.60;;;;;;5048097;28;20032;-64
2021/04/10 06:46:34;;;;;;;5.13;2.20;;;27.20;39.80;;;;;;5048000;28;20017;-65
2021/04/10 06:49:09;;;;;;;7.30;2.03;;;27.20;39.90;;;;;;5049128;28;20051;-65
2021/04/10 06:51:38;;;;;;;11.32;3.65;;;27.20;40.10;;;;;;5030758;28;20625;-53
2021/04/10 06:54:11;;;;;;;5.50;2.28;;;27.10;40.50;;;;;;5049138;28;20186;-63
2021/04/10 06:56:40;;;;;;;9.40;2.10;;;27.00;41.20;;;;;;5049073;28;20051;-60
2021/04/10 06:59:29;;;;;;;6.80;2.30;;;27.00;40.50;;;;;;5049069;28;20361;-57
2021/04/10 07:01:57;;;;;;;7.78;2.17;;;26.80;40.50;;;;;;5046334;28;20431;-55
2021/04/10 07:04:28;;;;;;;4.53;1.63;;;26.70;41.00;;;;;;5028527;28;20030;-63
2021/04/10 07:06:58;;;;;;;3.47;1.75;;;26.60;40.90;;;;;;5029206;28;20044;-61
2021/04/10 07:09:27;;;;;;;5.90;1.73;;;26.50;41.70;;;;;;5029187;28;20021;-61
2021/04/10 07:11:55;;;;;;;8.68;1.90;;;26.40;41.90;;;;;;5029197;28;20492;-59
2021/04/10 07:14:22;;;;;;;9.75;1.90;;;26.30;41.70;;;;;;5029190;28;20041;-59
2021/04/10 07:17:02;;;;;;;15.57;1.60;;;26.20;42.30;;;;;;5028898;28;20045;-60
2021/04/10 07:19:30;;;;;;;12.55;1.40;;;26.00;42.70;;;;;;5029256;28;20044;-59
2021/04/10 07:22:07;;;;;;;11.98;1.85;;;25.80;42.60;;;;;;5029501;28;20036;-60
2021/04/10 07:24:51;;;;;;;6.70;1.55;;;25.60;43.40;;;;;;5028651;28;20467;-64
2021/04/10 07:27:23;;;;;;;14.05;2.20;;;25.50;44.40;;;;;;5011318;28;20108;-67
2021/04/10 07:29:58;;;;;;;9.75;2.17;;;25.40;44.50;;;;;;5029460;28;20022;-63
2021/04/10 07:32:34;;;;;;;6.40;1.50;;;25.30;43.60;;;;;;5012057;28;20052;-66
2021/04/10 07:35:07;;;;;;;9.38;1.88;;;25.30;44.60;;;;;;5030020;28;20036;-65
2021/04/10 07:37:44;;;;;;;3.40;1.10;;;25.20;44.50;;;;;;5029911;28;20033;-66
2021/04/10 07:40:19;;;;;;;6.43;2.10;;;25.10;45.80;;;;;;5029588;28;20025;-55
2021/04/10 07:42:48;;;;;;;7.18;1.50;;;25.10;46.50;;;;;;5037413;28;20080;-65
2021/04/10 07:45:22;;;;;;;11.20;2.13;;;25.00;46.90;;;;;;5048909;28;20063;-63
2021/04/10 07:47:51;;;;;;;6.50;1.85;;;25.00;47.50;;;;;;5048785;28;20068;-63
2021/04/10 07:50:28;;;;;;;14.43;2.17;;;24.90;45.40;;;;;;5048967;28;20044;-60
2021/04/10 07:52:56;;;;;;;9.57;2.10;;;24.80;47.90;;;;;;5031070;28;20526;-64
2021/04/10 07:55:41;;;;;;;7.55;2.13;;;24.80;48.40;;;;;;5030924;28;20482;-64
2021/04/10 07:58:33;;;;;;;10.05;1.90;;;24.60;46.70;;;;;;5048901;28;20032;-55
2021/04/10 08:01:04;;;;;;;12.02;1.98;;;24.60;47.30;;;;;;5048604;28;20087;-64
2021/04/10 08:03:51;;;;;;;8.30;1.95;;;24.50;47.70;;;;;;5048961;28;20091;-62
2021/04/10 08:06:21;;;;;;;6.40;1.52;;;24.30;47.70;;;;;;5048926;28;20039;-62
2021/04/10 08:08:53;;;;;;;8.65;1.77;;;24.20;46.80;;;;;;5048300;28;20548;-63
2021/04/10 08:11:39;;;;;;;4.63;1.60;;;24.10;47.40;;;;;;5051260;28;20037;-63
2021/04/10 08:14:12;;;;;;;9.98;1.50;;;24.00;48.90;;;;;;5052745;28;20116;-52
2021/04/10 08:16:48;;;;;;;19.67;2.78;;;23.90;47.50;;;;;;5035437;28;20056;-56
2021/04/10 08:19:17;;;;;;;17.10;2.63;;;23.90;46.80;;;;;;5046864;28;20029;-62
2021/04/10 08:21:50;;;;;;;11.90;1.80;;;23.90;47.30;;;;;;5037762;28;20033;-60
2021/04/10 08:24:29;;;;;;;15.90;1.80;;;23.90;47.60;;;;;;5038324;28;20064;-59
2021/04/10 08:26:59;;;;;;;9.07;2.05;;;23.90;47.60;;;;;;5039801;28;20029;-56
2021/04/10 08:29:27;;;;;;;11.88;2.03;;;23.80;48.10;;;;;;5038848;28;20025;-54
2021/04/10 08:31:56;;;;;;;11.40;2.35;;;23.80;49.10;;;;;;5038614;28;20037;-53
2021/04/10 08:34:24;;;;;;;11.77;1.45;;;23.80;49.90;;;;;;5041849;28;20033;-56
2021/04/10 08:36:56;;;;;;;4.95;1.50;;;23.80;50.40;;;;;;5041001;28;20093;-57
2021/04/10 08:39:32;;;;;;;5.22;1.40;;;23.70;49.60;;;;;;5043558;28;20033;-57
2021/04/10 08:42:07;;;;;;;3.05;1.30;;;23.70;50.80;;;;;;5006918;28;20110;-59
2021/04/10 08:44:36;;;;;;;7.07;1.20;;;23.70;51.10;;;;;;5023719;28;20030;-58
2021/04/10 08:47:04;;;;;;;4.47;1.33;;;23.70;51.00;;;;;;5045218;28;20047;-61
2021/04/10 08:49:39;;;;;;;4.32;1.40;;;23.60;51.60;;;;;;5043218;28;20029;-58
2021/04/10 08:52:13;;;;;;;4.63;1.30;;;23.60;51.80;;;;;;5044056;28;20158;-59
2021/04/10 08:54:49;;;;;;;7.95;1.70;;;23.60;52.20;;;;;;5038411;28;20369;-60
2021/04/10 08:57:16;;;;;;;12.15;2.08;;;23.60;52.40;;;;;;5041399;28;20021;-53
2021/04/10 08:59:46;;;;;;;4.15;1.20;;;23.50;52.50;;;;;;5039523;28;20037;-55
2021/04/10 09:02:24;;;;;;;7.32;1.45;;;23.50;52.80;;;;;;5031354;28;20025;-56
2021/04/10 09:04:57;;;;;;;8.40;1.45;;;23.50;52.90;;;;;;5045074;28;20084;-58
2021/04/10 09:07:44;;;;;;;4.78;1.20;;;23.50;54.00;;;;;;5027533;28;20034;-59
2021/04/10 09:10:32;;;;;;;6.65;1.63;;;23.50;53.60;;;;;;5022877;28;20037;-60
2021/04/10 09:13:13;;;;;;;3.15;1.40;;;23.40;53.40;;;;;;5031989;28;20037;-63
2021/04/10 09:15:41;;;;;;;8.68;1.75;;;23.40;53.50;;;;;;5042248;28;20032;-60
2021/04/10 09:18:11;;;;;;;5.30;1.38;;;23.30;53.60;;;;;;5047491;28;20064;-55
2021/04/10 09:20:45;;;;;;;4.80;1.10;;;23.30;54.20;;;;;;5040902;28;20120;-60
2021/04/10 09:23:34;;;;;;;5.07;1.52;;;23.30;54.50;;;;;;5047713;28;20111;-53
2021/04/10 09:26:11;;;;;;;3.70;1.25;;;23.30;54.50;;;;;;5046434;28;20037;-58
2021/04/10 09:29:06;;;;;;;3.15;1.20;;;23.30;54.80;;;;;;5047191;28;20510;-64
2021/04/10 09:31:49;;;;;;;9.13;2.72;;;23.30;55.30;;;;;;5037522;28;20041;-61
2021/04/10 09:34:52;;;;;;;7.80;1.52;;;23.30;55.40;;;;;;5046112;28;20363;-61
2021/04/10 09:37:25;;;;;;;6.75;1.25;;;23.30;55.70;;;;;;5040835;28;20547;-63
2021/04/10 09:40:21;;;;;;;4.20;1.40;;;23.20;55.50;;;;;;5041981;28;20068;-58
2021/04/10 09:42:52;;;;;;;4.47;1.50;;;23.20;55.30;;;;;;5040051;28;20135;-62
2021/04/10 09:45:25;;;;;;;3.17;1.10;;;23.10;55.60;;;;;;5023811;28;20029;-53
2021/04/10 09:48:02;;;;;;;4.13;1.30;;;23.10;56.10;;;;;;5041806;28;20527;-53
2021/04/10 09:50:36;;;;;;;5.05;1.70;;;23.10;55.90;;;;;;5037062;28;20049;-52
2021/04/10 09:53:18;;;;;;;5.75;1.30;;;23.10;55.70;;;;;;5038370;28;20029;-50
2021/04/10 09:55:46;;;;;;;5.80;1.33;;;23.10;56.10;;;;;;5038124;28;20047;-56
2021/04/10 09:58:20;;;;;;;2.60;1.42;;;23.00;56.40;;;;;;5033026;28;20377;-60
2021/04/10 10:00:51;;;;;;;4.15;1.45;;;23.00;56.90;;;;;;5041255;28;20029;-51
2021/04/10 10:03:21;;;;;;;4.57;1.92;;;23.00;57.00;;;;;;5039700;28;20449;-59
2021/04/10 10:05:50;;;;;;;4.80;1.70;;;23.00;57.20;;;;;;5038912;28;20101;-53
2021/04/10 10:08:28;;;;;;;3.10;1.30;;;22.90;56.90;;;;;;5038860;28;20435;-50
2021/04/10 10:11:05;;;;;;;5.32;2.05;;;22.90;56.90;;;;;;5034432;28;20036;-56
2021/04/10 10:13:34;;;;;;;6.30;1.70;;;22.90;57.00;;;;;;5020062;28;20025;-57
2021/04/10 10:16:02;;;;;;;3.95;1.65;;;22.90;57.50;;;;;;5042988;28;20372;-55
2021/04/10 10:18:34;;;;;;;5.55;2.00;;;22.90;57.70;;;;;;5037863;28;20039;-63
2021/04/10 10:21:14;;;;;;;4.90;2.03;;;22.90;57.20;;;;;;5040063;28;20029;-57
2021/04/10 10:23:52;;;;;;;4.72;1.77;;;22.90;58.10;;;;;;5037019;28;20025;-57
2021/04/10 10:26:25;;;;;;;3.03;1.70;;;22.80;58.10;;;;;;5036127;28;20036;-56
2021/04/10 10:29:02;;;;;;;4.63;1.90;;;22.80;58.00;;;;;;5042829;28;20800;-58
2021/04/10 10:31:33;;;;;;;3.25;1.83;;;22.80;57.90;;;;;;5036080;28;20041;-55
2021/04/10 10:34:20;;;;;;;4.25;1.90;;;22.70;58.20;;;;;;5036568;28;20030;-55
2021/04/10 10:36:49;;;;;;;3.92;1.85;;;22.70;58.30;;;;;;5040469;28;20033;-50
2021/04/10 10:39:39;;;;;;;3.35;1.58;;;22.70;58.60;;;;;;5044608;28;20028;-54
2021/04/10 10:42:06;;;;;;;6.38;1.95;;;22.70;58.90;;;;;;5034672;28;20053;-53
2021/04/10 10:44:36;;;;;;;5.03;1.90;;;22.70;59.10;;;;;;5036649;28;20041;-60
2021/04/10 10:47:07;;;;;;;4.10;1.48;;;22.60;58.90;;;;;;5026852;28;20560;-63
2021/04/10 10:49:37;;;;;;;5.22;2.00;;;22.60;59.30;;;;;;5037489;28;20090;-62
2021/04/10 10:52:04;;;;;;;5.57;1.90;;;22.60;59.30;;;;;;5020848;28;20565;-62
2021/04/10 10:54:37;;;;;;;4.50;1.85;;;22.60;59.60;;;;;;5037623;28;20120;-65
2021/04/10 10:57:22;;;;;;;5.05;1.80;;;22.60;59.70;;;;;;5040698;28;20206;-53
2021/04/10 10:59:50;;;;;;;6.22;2.13;;;22.50;59.70;;;;;;5047404;28;20033;-53
2021/04/10 11:02:20;;;;;;;3.50;1.80;;;22.50;59.50;;;;;;5033619;28;20041;-55
2021/04/10 11:04:49;;;;;;;6.85;2.33;;;22.50;59.80;;;;;;5040308;28;20806;-62
2021/04/10 11:07:23;;;;;;;4.28;2.20;;;22.50;60.20;;;;;;5038632;28;20108;-64
2021/04/10 11:09:51;;;;;;;4.07;2.00;;;22.50;60.20;;;;;;5036364;28;20072;-62
2021/04/10 11:12:20;;;;;;;4.22;2.03;;;22.50;60.20;;;;;;5017949;28;20476;-59
2021/04/10 11:14:47;;;;;;;5.78;2.30;;;22.50;60.00;;;;;;5035022;28;20465;-58
2021/04/10 11:17:32;;;;;;;7.75;2.08;;;22.40;60.40;;;;;;5038045;28;20029;-61
2021/04/10 11:20:02;;;;;;;7.97;1.90;;;22.40;60.20;;;;;;5036460;28;20029;-58
2021/04/10 11:22:33;;;;;;;7.53;2.08;;;22.30;60.10;;;;;;5040260;28;20473;-57
2021/04/10 11:25:07;;;;;;;4.57;2.00;;;22.30;60.60;;;;;;5043135;28;20032;-60
2021/04/10 11:27:36;;;;;;;4.72;2.05;;;22.30;60.60;;;;;;5049127;28;20111;-65
2021/04/10 11:30:10;;;;;;;4.88;2.15;;;22.30;60.50;;;;;;5048986;28;20036;-61
2021/04/10 11:32:43;;;;;;;4.97;2.00;;;22.30;60.80;;;;;;5049083;28;20035;-57
2021/04/10 11:35:22;;;;;;;6.78;2.10;;;22.30;60.90;;;;;;5049608;28;20029;-60
2021/04/10 11:37:54;;;;;;;7.57;2.75;;;22.30;61.10;;;;;;5049356;28;20487;-64
2021/04/10 11:40:28;;;;;;;7.50;2.15;;;22.20;61.10;;;;;;5049670;28;20386;-66
2021/04/10 11:43:05;;;;;;;7.90;2.42;;;22.30;61.40;;;;;;5029324;28;20045;-56
2021/04/10 11:45:46;;;;;;;3.65;1.98;;;22.20;61.40;;;;;;5028795;28;20060;-55
2021/04/10 11:48:19;;;;;;;7.75;2.30;;;22.20;61.40;;;;;;5011380;28;20068;-61
2021/04/10 11:51:02;;;;;;;4.93;2.50;;;22.20;61.60;;;;;;5028609;28;20080;-66
2021/04/10 11:53:38;;;;;;;5.00;2.17;;;22.20;61.60;;;;;;5028734;28;20033;-57
2021/04/10 11:56:30;;;;;;;5.07;2.28;;;22.10;61.70;;;;;;5011392;28;20049;-63
2021/04/10 11:59:08;;;;;;;7.32;2.38;;;22.10;61.90;;;;;;5029296;28;20022;-64
2021/04/10 12:01:48;;;;;;;5.75;2.47;;;22.10;62.10;;;;;;5028930;28;20024;-64
2021/04/10 12:04:29;;;;;;;7.05;2.45;;;22.00;61.80;;;;;;5029042;28;20026;-65
2021/04/10 12:07:11;;;;;;;4.00;2.38;;;22.00;62.50;;;;;;5010847;28;20025;-62
2021/04/10 12:09:40;;;;;;;3.60;2.10;;;22.00;62.60;;;;;;5028672;28;20044;-66
2021/04/10 12:12:12;;;;;;;5.88;2.50;;;22.00;62.90;;;;;;5028431;28;20029;-64
2021/04/10 12:14:43;;;;;;;8.02;2.20;;;22.00;62.60;;;;;;5028477;28;20068;-63
2021/04/10 12:17:14;;;;;;;5.22;2.30;;;21.90;62.60;;;;;;5028890;28;20060;-67
2021/04/10 12:19:42;;;;;;;3.85;2.28;;;21.90;63.00;;;;;;5011114;28;20040;-62
2021/04/10 12:22:09;;;;;;;7.63;2.40;;;21.90;63.00;;;;;;5028583;28;20492;-65
2021/04/10 12:24:37;;;;;;;7.88;2.08;;;21.90;63.10;;;;;;5010930;28;20045;-66
2021/04/10 12:27:04;;;;;;;3.33;2.00;;;21.90;63.20;;;;;;5028950;28;20021;-64
2021/04/10 12:29:32;;;;;;;7.75;2.20;;;21.80;63.80;;;;;;5028880;28;20060;-63
2021/04/10 12:31:59;;;;;;;8.50;2.60;;;21.90;63.40;;;;;;5011197;28;20033;-62
2021/04/10 12:34:27;;;;;;;4.68;2.17;;;21.80;63.40;;;;;;5028624;28;20033;-61
2021/04/10 12:36:57;;;;;;;6.38;2.60;;;21.80;63.30;;;;;;5028523;28;20033;-67
2021/04/10 12:39:26;;;;;;;6.28;2.22;;;21.80;63.30;;;;;;5011382;28;20037;-63
2021/04/10 12:41:59;;;;;;;4.43;2.00;;;21.80;63.30;;;;;;5040913;28;20055;-62
2021/04/10 12:44:27;;;;;;;5.10;2.60;;;21.80;63.30;;;;;;5048264;28;20421;-67
2021/04/10 12:46:54;;;;;;;4.07;2.63;;;21.80;63.50;;;;;;5048737;28;20055;-62
2021/04/10 12:49:21;;;;;;;10.55;2.80;;;21.80;63.70;;;;;;5049616;28;20089;-58
2021/04/10 12:51:49;;;;;;;8.57;2.58;;;21.80;63.70;;;;;;5048579;28;20044;-64
2021/04/10 12:54:16;;;;;;;7.60;2.15;;;21.80;63.80;;;;;;5048583;28;20029;-66
2021/04/10 12:56:44;;;;;;;6.60;2.65;;;21.80;63.80;;;;;;5031941;28;20033;-62
2021/04/10 12:59:11;;;;;;;8.68;2.58;;;21.70;64.00;;;;;;5052111;28;20479;-59
2021/04/10 13:01:38;;;;;;;7.25;2.65;;;21.70;64.10;;;;;;5052415;28;20033;-66
2021/04/10 13:04:06;;;;;;;4.55;1.95;;;21.70;64.10;;;;;;5052060;28;20112;-68
2021/04/10 13:06:33;;;;;;;4.20;2.35;;;21.70;64.10;;;;;;5033603;28;20028;-63
2021/04/10 13:09:03;;;;;;;16.15;3.03;;;21.70;64.20;;;;;;5051807;28;20067;-55